Eurocargo Valencia — IBGZ — position and weather

sailwx.info

Track history (hours):
 
Tides and Currents Weather Stations Pressure Air Temp Water Temp Dewpoint Dewpoint Depression Visibility Wind Speed Wind Dir Waves Ship Positions

Eurocargo Valencia

Last reported at 2017-Aug-23 06:00 UTC. Time now 2017-Aug-23 06:15 UTC.
Position N 38°36' E 015°32'.

Length 196 m; draft 6 m.

Type: Cargo ship. MMSI: 247579000.

Date/timePositionNaut miles runAvg speedWind from/ knotsBaromVisibWave heightAir tempDewpointWater temp
2017-Aug-23 06:00N 38°36' E 015°32'816.8
2017-Aug-23 05:30N 38°44' E 015°28'816.8
2017-Aug-23 05:00N 38°52' E 015°24'917.0
2017-Aug-23 04:30N 39°00' E 015°20'2616.9
2017-Aug-23 02:58N 39°25' E 015°09'2416.3
2017-Aug-23 01:30N 39°47' E 014°58'815.7
2017-Aug-23 01:00N 39°54' E 014°54'41 3.0
2017-Aug-22 11:30N 40°34' E 014°43'8816.2
2017-Aug-22 06:06N 39°10' E 015°17'317.2
2017-Aug-22 05:57N 39°08' E 015°18'917.1
2017-Aug-22 05:28N 38°60' E 015°22'917.2
2017-Aug-22 04:55N 38°51' E 015°26'717.1
2017-Aug-22 04:30N 38°45' E 015°29'917.1
2017-Aug-22 04:00N 38°37' E 015°33'917.5
2017-Aug-22 03:30N 38°28' E 015°38'917.2
2017-Aug-22 03:01N 38°20' E 015°42'713.9
2017-Aug-22 02:30N 38°14' E 015°38'917.8
2017-Aug-22 02:00N 38°06' E 015°35'917.6
2017-Aug-22 01:30N 37°58' E 015°30'917.1
2017-Aug-22 01:00N 37°50' E 015°25'816.7
2017-Aug-22 00:30N 37°43' E 015°20'1815.5
2017-Aug-21 23:21N 37°28' E 015°07'2 4.2
2017-Aug-21 22:59N 37°29' E 015°06'0 0.0
2017-Aug-21 22:30N 37°29' E 015°06'0 0.0
2017-Aug-21 22:00N 37°29' E 015°06'0 0.0
2017-Aug-21 17:50N 37°29' E 015°06'7513.3
2017-Aug-21 12:14N 36°16' E 014°52'416.0
2017-Aug-21 12:00N 36°13' E 014°49'815.9
2017-Aug-21 11:30N 36°06' E 014°43'816.1
2017-Aug-21 11:00N 35°60' E 014°37'9 2.4
2017-Aug-21 07:23N 35°53' E 014°31'0 0.0
2017-Aug-21 05:35N 35°53' E 014°31'1 0.2
2017-Aug-20 23:20N 35°54' E 014°31'411.0
2017-Aug-20 23:00N 35°57' E 014°34'916.0
2017-Aug-20 22:27N 36°04' E 014°41'1116.3
2017-Aug-20 21:48N 36°13' E 014°49'516.5
2017-Aug-20 21:30N 36°17' E 014°52'916.5
2017-Aug-20 20:56N 36°24' E 014°59'716.7
2017-Aug-20 20:30N 36°30' E 015°05'816.2
2017-Aug-20 20:00N 36°36' E 015°11'816.4
2017-Aug-20 19:30N 36°44' E 015°16'816.6
2017-Aug-20 19:00N 36°51' E 015°21'3815.1
2017-Aug-20 16:28N 37°28' E 015°07'2 0.3
2017-Aug-20 09:45N 37°29' E 015°06'0 0.0
2017-Aug-20 09:25N 37°29' E 015°06'0 0.3
2017-Aug-20 09:00N 37°29' E 015°06'5 8.3
2017-Aug-20 08:23N 37°30' E 015°12'615.9
2017-Aug-20 08:00N 37°35' E 015°15'816.2
2017-Aug-20 07:30N 37°43' E 015°20'917.2
2017-Aug-20 07:00N 37°51' E 015°24'816.9
2017-Aug-20 06:30N 37°58' E 015°29'815.9
2017-Aug-20 06:00N 38°06' E 015°33'815.1
2017-Aug-20 05:30N 38°13' E 015°35'713.7
2017-Aug-20 05:00N 38°18' E 015°40'815.3
2017-Aug-20 04:30N 38°26' E 015°37'815.4
2017-Aug-20 04:00N 38°33' E 015°34'816.1
2017-Aug-20 03:30N 38°40' E 015°30'816.2
2017-Aug-20 03:00N 38°48' E 015°27'816.2
2017-Aug-20 02:30N 38°56' E 015°23'816.7
2017-Aug-20 02:00N 39°03' E 015°19'916.7
2017-Aug-20 01:28N 39°12' E 015°15'1416.6
2017-Aug-20 00:38N 39°25' E 015°09'316.7
2017-Aug-20 00:28N 39°27' E 015°07'2016.4
2017-Aug-19 23:13N 39°47' E 014°58'816.3
2017-Aug-19 22:45N 39°54' E 014°54'3416.1
2017-Aug-19 20:37N 40°27' E 014°44'216.5
2017-Aug-19 20:28N 40°29' E 014°44'1115.1
2017-Aug-19 19:47N 40°40' E 014°45'0 0.4
2017-Aug-19 18:47N 40°40' E 014°44'21 2.3
2017-Aug-19 09:40N 40°20' E 014°44'316.0
2017-Aug-19 09:28N 40°16' E 014°44'6316.2
2017-Aug-19 05:35N 39°17' E 015°13'416.1
2017-Aug-19 05:21N 39°14' E 015°14'515.8
2017-Aug-19 05:00N 39°09' E 015°17'815.8
2017-Aug-19 04:30N 39°02' E 015°21'815.7
2017-Aug-19 03:59N 38°54' E 015°25'815.9
2017-Aug-19 03:30N 38°47' E 015°28'816.0
2017-Aug-19 03:00N 38°39' E 015°32'816.2
2017-Aug-19 02:31N 38°32' E 015°36'816.4
2017-Aug-19 02:00N 38°24' E 015°40'816.0
2017-Aug-19 01:31N 38°17' E 015°43'714.7
2017-Aug-19 01:00N 38°11' E 015°37'815.2
2017-Aug-19 00:31N 38°03' E 015°34'816.1
2017-Aug-19 00:00N 37°56' E 015°29'815.8
2017-Aug-18 23:30N 37°49' E 015°24'816.0
2017-Aug-18 23:00N 37°42' E 015°20'1116.4
2017-Aug-18 22:21N 37°33' E 015°14'3 0.2
2017-Aug-18 08:58N 37°30' E 015°12'715.7
2017-Aug-18 08:29N 37°37' E 015°16'816.1
2017-Aug-18 08:00N 37°44' E 015°20'816.7
2017-Aug-18 07:30N 37°51' E 015°25'816.6
2017-Aug-18 07:00N 37°59' E 015°29'816.6
2017-Aug-18 06:30N 38°06' E 015°34'816.4
2017-Aug-18 06:00N 38°14' E 015°36'612.7
2017-Aug-18 05:30N 38°20' E 015°40'714.0
2017-Aug-18 05:00N 38°26' E 015°37'816.4
2017-Aug-18 04:31N 38°34' E 015°33'816.3
2017-Aug-18 04:00N 38°42' E 015°29'816.5
2017-Aug-18 03:30N 38°49' E 015°25'816.6
2017-Aug-18 03:00N 38°57' E 015°21'916.6
2017-Aug-18 02:28N 39°05' E 015°17'1916.6
2017-Aug-18 01:21N 39°23' E 015°09'616.4
2017-Aug-18 00:57N 39°29' E 015°07'1916.3
2017-Aug-17 23:47N 39°47' E 014°58'716.2
2017-Aug-17 23:19N 39°54' E 014°54'47 3.7
2017-Aug-17 10:31N 40°40' E 014°44'0 0.0
2017-Aug-17 10:30N 40°40' E 014°44'7812.7
2017-Aug-17 04:22N 39°25' E 015°09'1515.9
2017-Aug-17 03:25N 39°11' E 015°16'715.8
2017-Aug-17 03:00N 39°05' E 015°19'815.9
2017-Aug-17 02:30N 38°57' E 015°23'815.9
2017-Aug-17 02:00N 38°50' E 015°27'816.2
2017-Aug-17 01:30N 38°43' E 015°31'816.3
2017-Aug-17 01:00N 38°35' E 015°34'816.5
2017-Aug-17 00:30N 38°27' E 015°38'816.5
2017-Aug-17 00:00N 38°20' E 015°42'713.8
2017-Aug-16 23:31N 38°14' E 015°37'815.7
2017-Aug-16 23:00N 38°06' E 015°35'816.4
2017-Aug-16 22:30N 37°58' E 015°30'816.2
2017-Aug-16 22:00N 37°51' E 015°26'815.2
2017-Aug-16 21:30N 37°45' E 015°21'815.7
2017-Aug-16 21:00N 37°38' E 015°17'1015.5
2017-Aug-16 20:22N 37°29' E 015°11'  
Track history (hours):
 
Tides and Currents Weather Stations Pressure Air Temp Water Temp Dewpoint Dewpoint Depression Visibility Wind Speed Wind Dir Waves Ship Positions

Eurocargo Valencia

Last reported at 2017-Aug-23 06:00 UTC. Time now 2017-Aug-23 06:15 UTC.
Position N 38°36' E 015°32'.

Length 196 m; draft 6 m.

Type: Cargo ship. MMSI: 247579000.

Date/timePositionNaut miles runAvg speedWind from/ knotsBaromVisibWave heightAir tempDewpointWater temp
2017-Aug-23 06:00N 38°36' E 015°32'816.8
2017-Aug-23 05:30N 38°44' E 015°28'816.8
2017-Aug-23 05:00N 38°52' E 015°24'917.0
2017-Aug-23 04:30N 39°00' E 015°20'2616.9
2017-Aug-23 02:58N 39°25' E 015°09'2416.3
2017-Aug-23 01:30N 39°47' E 014°58'815.7
2017-Aug-23 01:00N 39°54' E 014°54'41 3.0
2017-Aug-22 11:30N 40°34' E 014°43'8816.2
2017-Aug-22 06:06N 39°10' E 015°17'317.2
2017-Aug-22 05:57N 39°08' E 015°18'917.1
2017-Aug-22 05:28N 38°60' E 015°22'917.2
2017-Aug-22 04:55N 38°51' E 015°26'717.1
2017-Aug-22 04:30N 38°45' E 015°29'917.1
2017-Aug-22 04:00N 38°37' E 015°33'917.5
2017-Aug-22 03:30N 38°28' E 015°38'917.2
2017-Aug-22 03:01N 38°20' E 015°42'713.9
2017-Aug-22 02:30N 38°14' E 015°38'917.8
2017-Aug-22 02:00N 38°06' E 015°35'917.6
2017-Aug-22 01:30N 37°58' E 015°30'917.1
2017-Aug-22 01:00N 37°50' E 015°25'816.7
2017-Aug-22 00:30N 37°43' E 015°20'1815.5
2017-Aug-21 23:21N 37°28' E 015°07'2 4.2
2017-Aug-21 22:59N 37°29' E 015°06'0 0.0
2017-Aug-21 22:30N 37°29' E 015°06'0 0.0
2017-Aug-21 22:00N 37°29' E 015°06'0 0.0
2017-Aug-21 17:50N 37°29' E 015°06'7513.3
2017-Aug-21 12:14N 36°16' E 014°52'416.0
2017-Aug-21 12:00N 36°13' E 014°49'815.9
2017-Aug-21 11:30N 36°06' E 014°43'816.1
2017-Aug-21 11:00N 35°60' E 014°37'9 2.4
2017-Aug-21 07:23N 35°53' E 014°31'0 0.0
2017-Aug-21 05:35N 35°53' E 014°31'1 0.2
2017-Aug-20 23:20N 35°54' E 014°31'411.0
2017-Aug-20 23:00N 35°57' E 014°34'916.0
2017-Aug-20 22:27N 36°04' E 014°41'1116.3
2017-Aug-20 21:48N 36°13' E 014°49'516.5
2017-Aug-20 21:30N 36°17' E 014°52'916.5
2017-Aug-20 20:56N 36°24' E 014°59'716.7
2017-Aug-20 20:30N 36°30' E 015°05'816.2
2017-Aug-20 20:00N 36°36' E 015°11'816.4
2017-Aug-20 19:30N 36°44' E 015°16'816.6
2017-Aug-20 19:00N 36°51' E 015°21'3815.1
2017-Aug-20 16:28N 37°28' E 015°07'2 0.3
2017-Aug-20 09:45N 37°29' E 015°06'0 0.0
2017-Aug-20 09:25N 37°29' E 015°06'0 0.3
2017-Aug-20 09:00N 37°29' E 015°06'5 8.3
2017-Aug-20 08:23N 37°30' E 015°12'615.9
2017-Aug-20 08:00N 37°35' E 015°15'816.2
2017-Aug-20 07:30N 37°43' E 015°20'917.2
2017-Aug-20 07:00N 37°51' E 015°24'816.9
2017-Aug-20 06:30N 37°58' E 015°29'815.9
2017-Aug-20 06:00N 38°06' E 015°33'815.1
2017-Aug-20 05:30N 38°13' E 015°35'713.7
2017-Aug-20 05:00N 38°18' E 015°40'815.3
2017-Aug-20 04:30N 38°26' E 015°37'815.4
2017-Aug-20 04:00N 38°33' E 015°34'816.1
2017-Aug-20 03:30N 38°40' E 015°30'816.2
2017-Aug-20 03:00N 38°48' E 015°27'816.2
2017-Aug-20 02:30N 38°56' E 015°23'816.7
2017-Aug-20 02:00N 39°03' E 015°19'916.7
2017-Aug-20 01:28N 39°12' E 015°15'1416.6
2017-Aug-20 00:38N 39°25' E 015°09'316.7
2017-Aug-20 00:28N 39°27' E 015°07'2016.4
2017-Aug-19 23:13N 39°47' E 014°58'816.3
2017-Aug-19 22:45N 39°54' E 014°54'3416.1
2017-Aug-19 20:37N 40°27' E 014°44'216.5
2017-Aug-19 20:28N 40°29' E 014°44'1115.1
2017-Aug-19 19:47N 40°40' E 014°45'0 0.4
2017-Aug-19 18:47N 40°40' E 014°44'21 2.3
2017-Aug-19 09:40N 40°20' E 014°44'316.0
2017-Aug-19 09:28N 40°16' E 014°44'6316.2
2017-Aug-19 05:35N 39°17' E 015°13'416.1
2017-Aug-19 05:21N 39°14' E 015°14'515.8
2017-Aug-19 05:00N 39°09' E 015°17'815.8
2017-Aug-19 04:30N 39°02' E 015°21'815.7
2017-Aug-19 03:59N 38°54' E 015°25'815.9
2017-Aug-19 03:30N 38°47' E 015°28'816.0
2017-Aug-19 03:00N 38°39' E 015°32'816.2
2017-Aug-19 02:31N 38°32' E 015°36'816.4
2017-Aug-19 02:00N 38°24' E 015°40'816.0
2017-Aug-19 01:31N 38°17' E 015°43'714.7
2017-Aug-19 01:00N 38°11' E 015°37'815.2
2017-Aug-19 00:31N 38°03' E 015°34'816.1
2017-Aug-19 00:00N 37°56' E 015°29'815.8
2017-Aug-18 23:30N 37°49' E 015°24'816.0
2017-Aug-18 23:00N 37°42' E 015°20'1116.4
2017-Aug-18 22:21N 37°33' E 015°14'3 0.2
2017-Aug-18 08:58N 37°30' E 015°12'715.7
2017-Aug-18 08:29N 37°37' E 015°16'816.1
2017-Aug-18 08:00N 37°44' E 015°20'816.7
2017-Aug-18 07:30N 37°51' E 015°25'816.6
2017-Aug-18 07:00N 37°59' E 015°29'816.6
2017-Aug-18 06:30N 38°06' E 015°34'816.4
2017-Aug-18 06:00N 38°14' E 015°36'612.7
2017-Aug-18 05:30N 38°20' E 015°40'714.0
2017-Aug-18 05:00N 38°26' E 015°37'816.4
2017-Aug-18 04:31N 38°34' E 015°33'816.3
2017-Aug-18 04:00N 38°42' E 015°29'816.5
2017-Aug-18 03:30N 38°49' E 015°25'816.6
2017-Aug-18 03:00N 38°57' E 015°21'916.6
2017-Aug-18 02:28N 39°05' E 015°17'1916.6
2017-Aug-18 01:21N 39°23' E 015°09'616.4
2017-Aug-18 00:57N 39°29' E 015°07'1916.3
2017-Aug-17 23:47N 39°47' E 014°58'716.2
2017-Aug-17 23:19N 39°54' E 014°54'47 3.7
2017-Aug-17 10:31N 40°40' E 014°44'0 0.0
2017-Aug-17 10:30N 40°40' E 014°44'7812.7
2017-Aug-17 04:22N 39°25' E 015°09'1515.9
2017-Aug-17 03:25N 39°11' E 015°16'715.8
2017-Aug-17 03:00N 39°05' E 015°19'815.9
2017-Aug-17 02:30N 38°57' E 015°23'815.9
2017-Aug-17 02:00N 38°50' E 015°27'816.2
2017-Aug-17 01:30N 38°43' E 015°31'816.3
2017-Aug-17 01:00N 38°35' E 015°34'816.5
2017-Aug-17 00:30N 38°27' E 015°38'816.5
2017-Aug-17 00:00N 38°20' E 015°42'713.8
2017-Aug-16 23:31N 38°14' E 015°37'815.7
2017-Aug-16 23:00N 38°06' E 015°35'816.4
2017-Aug-16 22:30N 37°58' E 015°30'816.2
2017-Aug-16 22:00N 37°51' E 015°26'815.2
2017-Aug-16 21:30N 37°45' E 015°21'815.7
2017-Aug-16 21:00N 37°38' E 015°17'1015.5
2017-Aug-16 20:22N 37°29' E 015°11'  

Dump ship's entire track history